Time;durP1;ratioP1;P1;durP2;ratioP2;P2;SDS_P1;SDS_P2;PMS_P1;PMS_P2;Temp;Humidity;BMP_temperature;BMP_pressure;BME280_temperature;BME280_humidity;BME280_pressure;Samples;Min_cycle;Max_cycle;Signal;HPM_P1;HPM_P2
2022/01/19 00:00:57;;;;;;;56.13;20.20;;;6.00;99.90;;;;;;4974845;28;20459;-74
2022/01/19 00:03:24;;;;;;;44.67;16.15;;;5.80;99.90;;;;;;4964479;28;20050;-75
2022/01/19 00:05:50;;;;;;;55.97;18.98;;;5.90;99.90;;;;;;4978654;28;20477;-74
2022/01/19 00:08:18;;;;;;;59.53;18.42;;;6.10;99.90;;;;;;4983341;28;20111;-74
2022/01/19 00:10:45;;;;;;;48.03;17.15;;;5.80;99.90;;;;;;4999855;28;20053;-74
2022/01/19 00:13:11;;;;;;;61.28;20.63;;;5.80;99.90;;;;;;4965044;28;20038;-74
2022/01/19 00:15:36;;;;;;;63.40;24.00;;;5.80;99.90;;;;;;4980528;28;20556;-74
2022/01/19 00:18:02;;;;;;;69.38;20.75;;;5.90;99.90;;;;;;4994151;28;20057;-75
2022/01/19 00:20:31;;;;;;;63.05;20.85;;;5.80;99.90;;;;;;5000917;28;20049;-75
2022/01/19 00:22:57;;;;;;;56.72;17.45;;;5.80;99.90;;;;;;4975668;28;20049;-74
2022/01/19 00:25:23;;;;;;;57.38;19.75;;;6.20;99.90;;;;;;4996515;28;20081;-75
2022/01/19 00:27:49;;;;;;;58.88;19.42;;;5.80;99.90;;;;;;4979268;28;20084;-75
2022/01/19 00:30:15;;;;;;;59.00;20.33;;;5.80;99.90;;;;;;4992995;28;20078;-74
2022/01/19 00:32:41;;;;;;;50.33;18.35;;;5.80;99.90;;;;;;4994668;28;20088;-74
2022/01/19 00:35:09;;;;;;;71.10;22.45;;;5.80;99.90;;;;;;4972905;28;20056;-75
2022/01/19 00:37:36;;;;;;;58.08;20.42;;;5.80;99.90;;;;;;4987058;28;20065;-75
2022/01/19 00:40:03;;;;;;;75.88;23.05;;;5.80;99.90;;;;;;5000429;28;20049;-75
2022/01/19 00:42:29;;;;;;;72.32;21.27;;;5.80;99.90;;;;;;4975993;28;20223;-74
2022/01/19 00:44:55;;;;;;;81.18;23.40;;;5.80;99.90;;;;;;4992254;28;20041;-75
2022/01/19 00:47:21;;;;;;;73.63;22.27;;;5.80;99.90;;;;;;4962129;28;20054;-74
2022/01/19 00:49:46;;;;;;;90.22;25.65;;;6.60;99.90;;;;;;4985565;28;20042;-75
2022/01/19 00:52:13;;;;;;;86.78;24.77;;;6.70;99.90;;;;;;4999070;28;20050;-75
2022/01/19 00:54:41;;;;;;;86.70;24.95;;;5.90;99.90;;;;;;4983700;28;20049;-75
2022/01/19 00:57:08;;;;;;;81.78;23.08;;;5.90;99.90;;;;;;4975662;28;20046;-74
2022/01/19 00:59:34;;;;;;;93.82;24.60;;;5.90;99.90;;;;;;4971401;28;20152;-74
2022/01/19 01:02:00;;;;;;;99.80;26.63;;;5.90;99.90;;;;;;4964563;28;20395;-75
2022/01/19 01:04:26;;;;;;;98.78;26.42;;;5.90;99.90;;;;;;4987405;28;20039;-75
2022/01/19 01:06:52;;;;;;;94.45;24.80;;;5.90;99.90;;;;;;4988585;28;20514;-75
2022/01/19 01:09:18;;;;;;;92.93;25.02;;;5.90;99.90;;;;;;4964632;28;20554;-74
2022/01/19 01:12:10;;;;;;;101.50;26.40;;;6.50;99.90;;;;;;4992874;28;20053;-75
2022/01/19 01:20:05;;;;;;;92.47;25.13;;;5.90;99.90;;;;;;4998095;28;20053;-75
2022/01/19 01:22:31;;;;;;;105.80;29.05;;;5.90;99.90;;;;;;5001382;28;20046;-75
2022/01/19 01:24:57;;;;;;;107.15;27.30;;;6.60;99.90;;;;;;4988073;28;20058;-75
2022/01/19 01:27:22;;;;;;;92.53;23.98;;;6.20;99.90;;;;;;4983592;28;20045;-74
2022/01/19 01:29:48;;;;;;;102.85;27.63;;;6.30;99.90;;;;;;4997115;28;20105;-75
2022/01/19 01:32:14;;;;;;;95.72;25.20;;;6.00;99.90;;;;;;4966142;28;20145;-75
2022/01/19 01:34:40;;;;;;;92.90;24.27;;;6.00;99.90;;;;;;4980195;28;20057;-74
2022/01/19 01:37:06;;;;;;;100.60;25.88;;;6.90;99.90;;;;;;5012706;28;20047;-75
2022/01/19 01:39:32;;;;;;;77.50;22.52;;;6.10;99.90;;;;;;5013902;28;20050;-74
2022/01/19 01:41:57;;;;;;;80.03;24.17;;;5.90;99.90;;;;;;4984269;28;20069;-75
2022/01/19 01:44:23;;;;;;;81.60;22.90;;;5.90;99.90;;;;;;4961374;28;20051;-75
2022/01/19 01:46:54;;;;;;;65.95;19.33;;;6.40;99.90;;;;;;4990869;28;20038;-75
2022/01/19 01:49:27;;;;;;;77.38;20.92;;;6.30;99.90;;;;;;4997125;28;20558;-75
2022/01/19 01:54:41;;;;;;;69.65;21.65;;;5.90;99.90;;;;;;5013287;28;20042;-75
2022/01/19 01:57:08;;;;;;;66.72;22.27;;;6.70;99.90;;;;;;4983891;28;20077;-74
2022/01/19 01:59:34;;;;;;;66.50;19.30;;;6.20;99.90;;;;;;4970617;28;20519;-75
2022/01/19 02:02:00;;;;;;;61.72;17.65;;;5.80;99.90;;;;;;5013798;28;20391;-75
2022/01/19 02:04:26;;;;;;;72.43;20.95;;;5.90;99.90;;;;;;4993885;28;20071;-75
2022/01/19 02:09:51;;;;;;;72.20;21.05;;;5.80;99.90;;;;;;4968401;28;20163;-75
2022/01/19 02:23:24;;;;;;;60.33;18.98;;;6.60;99.90;;;;;;5016714;28;20446;-74
2022/01/19 02:25:53;;;;;;;78.85;20.67;;;6.60;99.90;;;;;;5003473;28;20093;-75
2022/01/19 02:42:07;;;;;;;63.33;18.80;;;6.20;99.90;;;;;;5018822;28;20416;-74
2022/01/19 02:49:47;;;;;;;49.63;15.07;;;5.90;99.90;;;;;;4997300;28;20105;-74
2022/01/19 02:52:13;;;;;;;58.97;18.43;;;5.90;99.90;;;;;;5000049;28;20050;-74
2022/01/19 02:54:39;;;;;;;69.80;19.55;;;5.90;99.90;;;;;;5011584;28;20041;-74
2022/01/19 02:57:09;;;;;;;64.18;18.95;;;5.90;99.90;;;;;;5012518;28;20049;-76
2022/01/19 03:10:34;;;;;;;68.38;20.27;;;6.90;99.90;;;;;;4998796;28;20093;-75
2022/01/19 03:13:00;;;;;;;52.70;18.48;;;6.30;99.90;;;;;;4996295;28;20477;-74
2022/01/19 03:15:27;;;;;;;46.97;15.73;;;5.90;99.90;;;;;;4995508;28;20041;-74
2022/01/19 03:17:57;;;;;;;58.83;19.08;;;5.90;99.90;;;;;;5012060;28;20455;-74
2022/01/19 03:20:24;;;;;;;62.88;18.70;;;6.80;99.90;;;;;;4980254;28;20046;-75
2022/01/19 03:23:35;;;;;;;66.75;20.80;;;6.90;99.90;;;;;;4995917;28;20061;-75
2022/01/19 03:25:38;;;;;;;72.57;21.63;;;6.70;99.90;;;;;;4990460;28;20077;-75
2022/01/19 03:28:05;;;;;;;65.20;19.77;;;6.70;99.90;;;;;;5011550;28;20486;-74
2022/01/19 03:30:32;;;;;;;72.32;21.92;;;5.70;99.90;;;;;;4996244;28;20495;-74
2022/01/19 03:32:58;;;;;;;65.85;17.80;;;5.70;99.90;;;;;;4994724;28;20050;-74
2022/01/19 03:35:24;;;;;;;66.50;19.42;;;5.70;99.90;;;;;;4978859;28;20049;-75
2022/01/19 03:37:50;;;;;;;73.13;22.00;;;5.70;99.90;;;;;;5008288;28;20046;-74
2022/01/19 03:40:16;;;;;;;88.63;23.10;;;5.70;99.90;;;;;;5004372;28;20056;-74
2022/01/19 03:42:42;;;;;;;76.75;22.20;;;5.70;99.90;;;;;;4995502;28;20053;-75
2022/01/19 03:45:09;;;;;;;72.38;20.13;;;5.70;99.90;;;;;;4995456;28;20057;-74
2022/01/19 03:47:41;;;;;;;72.95;20.83;;;5.70;99.90;;;;;;4979003;28;20049;-75
2022/01/19 03:50:08;;;;;;;70.65;20.38;;;5.70;99.90;;;;;;5011968;28;20102;-75
2022/01/19 03:52:34;;;;;;;73.65;20.92;;;5.60;99.90;;;;;;5011619;28;20058;-74
2022/01/19 03:55:00;;;;;;;78.45;21.38;;;6.20;99.90;;;;;;5011632;28;20050;-75
2022/01/19 03:57:26;;;;;;;59.97;18.90;;;5.70;99.90;;;;;;5011341;28;20056;-74
2022/01/19 03:59:51;;;;;;;62.60;17.92;;;5.70;99.90;;;;;;4979349;28;20128;-75
2022/01/19 04:02:19;;;;;;;66.90;20.27;;;6.60;99.90;;;;;;5011209;28;20046;-75
2022/01/19 04:04:51;;;;;;;63.28;19.55;;;5.70;99.90;;;;;;4994637;28;20486;-74
2022/01/19 04:07:17;;;;;;;68.45;21.25;;;6.40;99.90;;;;;;5010466;28;20467;-75
2022/01/19 04:09:44;;;;;;;63.83;17.83;;;6.10;99.90;;;;;;5011354;28;20088;-75
2022/01/19 04:12:15;;;;;;;63.33;20.13;;;5.70;99.90;;;;;;4995730;28;20046;-75
2022/01/19 04:14:41;;;;;;;60.60;19.73;;;5.70;99.90;;;;;;5010637;28;20391;-75
2022/01/19 04:17:10;;;;;;;46.70;16.67;;;5.70;99.90;;;;;;4994703;28;20316;-75
2022/01/19 04:19:44;;;;;;;64.00;19.40;;;6.60;99.90;;;;;;5011107;28;20525;-74
2022/01/19 04:22:13;;;;;;;67.82;21.38;;;6.10;99.90;;;;;;4994998;28;20052;-75
2022/01/19 04:24:40;;;;;;;71.22;22.50;;;5.70;99.90;;;;;;4994701;28;20454;-75
2022/01/19 04:30:05;;;;;;;78.63;23.58;;;6.60;99.90;;;;;;4999160;28;20058;-74
2022/01/19 04:32:50;;;;;;;64.00;21.17;;;6.20;99.90;;;;;;5011095;28;20503;-74
2022/01/19 04:35:23;;;;;;;74.97;23.35;;;5.70;99.90;;;;;;5010689;28;20046;-75
2022/01/19 05:07:24;;;;;;;83.50;25.25;;;6.40;99.90;;;;;;4994351;28;20050;-75
2022/01/19 05:13:23;;;;;;;74.82;23.70;;;6.10;99.90;;;;;;4994509;28;20049;-75
2022/01/19 05:15:29;;;;;;;74.22;22.73;;;5.60;99.90;;;;;;5010189;28;20399;-75
2022/01/19 05:17:54;;;;;;;73.50;22.42;;;6.00;99.90;;;;;;4961606;28;20061;-75
2022/01/19 05:20:20;;;;;;;64.60;19.45;;;5.70;99.90;;;;;;4993786;28;20060;-74
2022/01/19 05:22:46;;;;;;;74.50;23.20;;;5.70;99.90;;;;;;4993970;28;20049;-74
2022/01/19 05:25:12;;;;;;;73.50;23.95;;;6.40;99.90;;;;;;5009749;28;20038;-75
2022/01/19 05:27:37;;;;;;;70.97;24.75;;;5.70;99.90;;;;;;5010332;28;20050;-74
2022/01/19 05:30:05;;;;;;;74.40;24.85;;;5.80;99.90;;;;;;4993707;28;20534;-75
2022/01/19 05:32:31;;;;;;;73.00;24.60;;;5.70;99.90;;;;;;4993608;28;20053;-74
2022/01/19 05:34:57;;;;;;;74.28;24.08;;;5.70;99.90;;;;;;4992522;28;20046;-74
2022/01/19 05:37:22;;;;;;;66.63;22.30;;;5.70;99.90;;;;;;4993432;28;20053;-75
2022/01/19 05:39:48;;;;;;;78.38;23.38;;;5.70;99.90;;;;;;5010334;28;20158;-74
2022/01/19 05:42:15;;;;;;;69.68;21.98;;;6.70;99.90;;;;;;4993575;28;20057;-75
2022/01/19 05:44:43;;;;;;;73.18;21.83;;;5.70;99.90;;;;;;4977187;28;20050;-75
2022/01/19 05:47:13;;;;;;;85.18;25.67;;;5.70;99.90;;;;;;4994009;28;20049;-75
2022/01/19 05:49:40;;;;;;;78.80;24.23;;;5.90;99.90;;;;;;4993822;28;20507;-75
2022/01/19 05:52:07;;;;;;;75.35;24.98;;;6.80;99.90;;;;;;4993824;28;20099;-75
2022/01/19 05:54:33;;;;;;;68.53;24.05;;;5.70;99.90;;;;;;4992856;28;20058;-75
2022/01/19 05:56:59;;;;;;;73.63;22.95;;;5.70;99.90;;;;;;4997325;28;20060;-75
2022/01/19 05:59:26;;;;;;;75.22;25.10;;;5.70;99.90;;;;;;4997491;28;20136;-75
2022/01/19 06:01:52;;;;;;;76.50;23.50;;;5.70;99.90;;;;;;4997396;28;20505;-75
2022/01/19 06:04:18;;;;;;;74.07;25.60;;;5.70;99.90;;;;;;5012609;28;20046;-75
2022/01/19 06:06:43;;;;;;;73.93;24.02;;;6.40;99.90;;;;;;4996967;28;20050;-75
2022/01/19 06:09:22;;;;;;;62.22;19.30;;;5.70;99.90;;;;;;4964958;28;20086;-75
2022/01/19 06:11:48;;;;;;;62.30;20.00;;;6.50;99.90;;;;;;4997462;28;20497;-74
2022/01/19 06:14:14;;;;;;;67.65;22.77;;;5.70;99.90;;;;;;4996581;28;20555;-75
2022/01/19 06:16:41;;;;;;;83.53;24.38;;;5.70;99.90;;;;;;4997110;28;20145;-75
2022/01/19 06:19:06;;;;;;;63.72;21.95;;;5.70;99.90;;;;;;5013497;28;20505;-74
2022/01/19 06:21:32;;;;;;;66.10;24.05;;;5.90;99.90;;;;;;4997213;28;20049;-75
2022/01/19 06:23:58;;;;;;;75.30;23.80;;;6.00;99.90;;;;;;4980233;28;20065;-75
2022/01/19 06:26:24;;;;;;;75.43;25.33;;;5.60;99.90;;;;;;4997144;28;20072;-75
2022/01/19 06:28:51;;;;;;;76.45;24.48;;;5.60;99.90;;;;;;5013220;28;20700;-75
2022/01/19 06:31:17;;;;;;;79.50;25.67;;;5.60;99.90;;;;;;5013266;28;20046;-75
2022/01/19 06:33:43;;;;;;;75.85;24.38;;;5.60;99.90;;;;;;4996024;28;20049;-75
2022/01/19 06:36:08;;;;;;;75.03;24.27;;;5.70;99.90;;;;;;4981023;28;20060;-75
2022/01/19 06:38:34;;;;;;;70.70;22.30;;;5.70;99.90;;;;;;4996450;28;20045;-74
2022/01/19 06:41:00;;;;;;;77.05;25.20;;;5.70;99.90;;;;;;4996712;28;20054;-75
2022/01/19 06:43:26;;;;;;;73.50;21.60;;;5.70;99.90;;;;;;4980283;28;20048;-75
2022/01/19 06:45:54;;;;;;;63.47;21.48;;;6.50;99.90;;;;;;4980176;28;20490;-75
2022/01/19 06:48:20;;;;;;;66.60;21.33;;;5.60;99.90;;;;;;4996360;28;20046;-75
2022/01/19 06:50:46;;;;;;;72.30;22.35;;;5.60;99.90;;;;;;4996791;28;20100;-75
2022/01/19 06:53:11;;;;;;;72.53;22.98;;;5.60;99.90;;;;;;4995976;28;20497;-75
2022/01/19 06:55:37;;;;;;;71.20;22.90;;;5.70;99.90;;;;;;4979655;28;20115;-75
2022/01/19 06:58:03;;;;;;;83.20;25.38;;;6.20;99.90;;;;;;4996175;28;20045;-75
2022/01/19 07:00:29;;;;;;;77.07;26.48;;;6.70;99.90;;;;;;4996595;28;20050;-75
2022/01/19 07:02:55;;;;;;;69.38;24.02;;;6.50;99.90;;;;;;5015930;28;20122;-75
2022/01/19 07:05:21;;;;;;;80.18;25.55;;;5.70;99.90;;;;;;4997424;28;20046;-75
2022/01/19 07:07:47;;;;;;;80.03;27.23;;;5.70;99.90;;;;;;5011694;28;20509;-75
2022/01/19 07:10:13;;;;;;;76.90;27.35;;;5.70;99.90;;;;;;4980314;28;20077;-75
2022/01/19 07:12:39;;;;;;;78.15;26.33;;;5.70;99.90;;;;;;4995882;28;20060;-74
2022/01/19 07:15:05;;;;;;;76.30;25.55;;;6.30;99.90;;;;;;4979474;28;20046;-75
2022/01/19 07:17:31;;;;;;;77.10;24.35;;;5.60;99.90;;;;;;4995780;28;20528;-75
2022/01/19 07:19:57;;;;;;;80.85;29.23;;;5.60;99.90;;;;;;4996309;28;20058;-75
2022/01/19 07:22:23;;;;;;;83.30;26.88;;;5.60;99.90;;;;;;4979803;28;20046;-75
2022/01/19 07:24:49;;;;;;;74.07;26.90;;;5.60;99.90;;;;;;4995447;28;20081;-74
2022/01/19 07:27:15;;;;;;;75.82;26.15;;;5.60;99.90;;;;;;4979502;28;20136;-75
2022/01/19 07:29:41;;;;;;;83.28;27.27;;;5.60;99.90;;;;;;4996008;28;20575;-75
2022/01/19 07:32:09;;;;;;;83.88;27.50;;;5.70;99.90;;;;;;4995809;28;20038;-76
2022/01/19 07:34:35;;;;;;;72.30;24.63;;;5.60;99.90;;;;;;4979618;28;20050;-75
2022/01/19 07:37:01;;;;;;;83.82;27.70;;;5.60;99.90;;;;;;4994850;28;20482;-75
2022/01/19 07:39:26;;;;;;;87.47;28.65;;;5.60;99.90;;;;;;4979807;28;20494;-75
2022/01/19 07:41:55;;;;;;;86.30;27.83;;;5.70;99.90;;;;;;4995401;28;20487;-75
2022/01/19 07:44:22;;;;;;;84.85;28.35;;;5.60;99.90;;;;;;4979134;28;20050;-74
2022/01/19 07:46:48;;;;;;;72.18;24.65;;;6.40;99.90;;;;;;4979114;28;20046;-78
2022/01/19 07:49:14;;;;;;;79.38;25.80;;;5.90;99.90;;;;;;4995808;28;20223;-75
2022/01/19 07:51:40;;;;;;;76.65;26.77;;;5.70;99.90;;;;;;4995445;28;20507;-74
2022/01/19 07:54:06;;;;;;;74.20;23.95;;;5.80;99.90;;;;;;4980883;28;20064;-75
2022/01/19 07:56:32;;;;;;;65.22;22.20;;;5.70;99.90;;;;;;4995359;28;20474;-74
2022/01/19 07:58:58;;;;;;;84.55;29.00;;;5.60;99.90;;;;;;5012143;28;20053;-75
2022/01/19 08:01:24;;;;;;;78.22;27.02;;;5.60;99.90;;;;;;4995470;28;20054;-74
2022/01/19 08:03:49;;;;;;;83.20;28.15;;;5.70;99.90;;;;;;4980308;28;20484;-74
2022/01/19 08:06:15;;;;;;;72.75;26.48;;;5.60;99.90;;;;;;4995069;28;20049;-74
2022/01/19 08:08:41;;;;;;;62.58;22.80;;;5.60;99.90;;;;;;5006350;28;20112;-74
2022/01/19 08:11:07;;;;;;;70.50;25.65;;;5.60;99.90;;;;;;5010974;28;20046;-75
2022/01/19 08:13:32;;;;;;;64.13;24.40;;;5.50;99.90;;;;;;5011947;28;20100;-74
2022/01/19 08:15:58;;;;;;;68.00;25.63;;;5.60;99.90;;;;;;5019739;28;20083;-74
2022/01/19 08:18:24;;;;;;;68.05;24.67;;;5.50;99.90;;;;;;4995438;28;20408;-74
2022/01/19 08:20:50;;;;;;;64.65;25.20;;;5.60;99.90;;;;;;4978706;28;20693;-74
2022/01/19 08:23:16;;;;;;;63.60;24.85;;;4.60;99.90;;;;;;4994363;28;20450;-75
2022/01/19 08:25:41;;;;;;;60.75;22.73;;;6.30;99.90;;;;;;5010912;28;20046;-74
2022/01/19 08:28:07;;;;;;;69.95;25.48;;;5.50;99.90;;;;;;5011107;28;20096;-74
2022/01/19 08:30:33;;;;;;;63.63;23.77;;;5.60;99.90;;;;;;4994703;28;20046;-74
2022/01/19 08:32:59;;;;;;;65.07;24.33;;;6.20;99.90;;;;;;5010983;28;20100;-74
2022/01/19 08:35:25;;;;;;;64.35;25.42;;;5.50;99.90;;;;;;5018400;28;20176;-74
2022/01/19 08:37:51;;;;;;;60.60;24.00;;;5.40;99.90;;;;;;5008739;28;20050;-74
2022/01/19 08:40:16;;;;;;;64.07;26.33;;;5.50;99.90;;;;;;4994625;28;20045;-76
2022/01/19 08:42:42;;;;;;;65.43;26.30;;;5.40;99.90;;;;;;4994080;28;20046;-75
2022/01/19 08:45:09;;;;;;;66.65;26.23;;;5.40;99.90;;;;;;4992148;28;20398;-75
2022/01/19 08:47:37;;;;;;;68.07;25.80;;;5.30;99.90;;;;;;4993521;28;20052;-75
2022/01/19 08:50:09;;;;;;;61.40;26.55;;;5.30;99.90;;;;;;5013507;28;20052;-74
2022/01/19 08:52:35;;;;;;;59.40;24.58;;;5.30;99.90;;;;;;4996578;28;20140;-74
2022/01/19 08:55:01;;;;;;;57.88;21.65;;;5.20;99.90;;;;;;5008825;28;20388;-74
2022/01/19 08:57:26;;;;;;;66.53;23.95;;;5.30;99.90;;;;;;4996090;28;20050;-74
2022/01/19 08:59:52;;;;;;;66.57;26.95;;;5.20;99.90;;;;;;4993325;28;20578;-74
2022/01/19 09:02:18;;;;;;;66.20;26.88;;;6.10;99.90;;;;;;4976911;28;20129;-74
2022/01/19 09:04:45;;;;;;;55.22;23.75;;;5.50;99.90;;;;;;5011242;28;20052;-75
2022/01/19 09:07:11;;;;;;;57.05;21.75;;;5.30;99.90;;;;;;4977437;28;20046;-74
2022/01/19 09:09:37;;;;;;;59.58;25.27;;;5.20;99.90;;;;;;4995952;28;20116;-74
2022/01/19 09:12:03;;;;;;;66.53;28.15;;;5.90;99.90;;;;;;5010385;28;20042;-74
2022/01/19 09:14:30;;;;;;;69.28;26.77;;;5.20;99.90;;;;;;4994244;28;20041;-74
2022/01/19 09:16:56;;;;;;;62.47;25.13;;;5.20;99.90;;;;;;4978253;28;20060;-74
2022/01/19 09:19:22;;;;;;;67.88;28.85;;;5.20;99.90;;;;;;4993274;28;20125;-75
2022/01/19 09:21:49;;;;;;;57.40;23.60;;;5.30;99.90;;;;;;4993568;28;20085;-77
2022/01/19 09:24:15;;;;;;;69.28;26.42;;;5.20;99.90;;;;;;5010303;28;20757;-82
2022/01/19 09:26:41;;;;;;;66.10;26.67;;;5.30;99.90;;;;;;4978406;28;20045;-78
2022/01/19 09:29:06;;;;;;;72.60;27.23;;;5.30;99.90;;;;;;4994327;28;20068;-84
2022/01/19 09:31:33;;;;;;;61.38;23.10;;;5.40;99.90;;;;;;4981719;28;20068;-82
2022/01/19 09:34:09;;;;;;;63.38;25.50;;;5.40;99.90;;;;;;5014423;28;20077;-80
2022/01/19 09:36:46;;;;;;;60.00;24.60;;;5.40;99.90;;;;;;5015468;28;20050;-87
2022/01/19 09:39:30;;;;;;;67.13;28.33;;;5.40;99.90;;;;;;5014389;28;20046;-78
2022/01/19 09:41:56;;;;;;;62.42;25.00;;;5.90;99.90;;;;;;5014066;28;20048;-77
2022/01/19 09:44:24;;;;;;;55.08;22.70;;;5.80;99.90;;;;;;5013849;28;20038;-77
2022/01/19 09:46:51;;;;;;;59.15;24.60;;;5.50;99.90;;;;;;5014255;28;20648;-77
2022/01/19 09:49:18;;;;;;;68.28;26.73;;;5.50;99.90;;;;;;5014054;28;20140;-77
2022/01/19 09:51:46;;;;;;;72.25;29.17;;;5.60;99.90;;;;;;4997550;28;20114;-77
2022/01/19 09:54:24;;;;;;;68.68;26.30;;;5.70;99.90;;;;;;5000426;28;20107;-77
2022/01/19 09:56:50;;;;;;;66.43;27.13;;;5.70;99.90;;;;;;5014356;28;20490;-77
2022/01/19 09:59:16;;;;;;;56.67;24.17;;;5.70;99.90;;;;;;5014101;28;20050;-77
2022/01/19 10:01:51;;;;;;;53.97;24.60;;;5.70;99.90;;;;;;5013962;28;20046;-77
2022/01/19 10:04:19;;;;;;;56.55;24.15;;;6.10;99.90;;;;;;5015173;28;20048;-77
2022/01/19 10:06:45;;;;;;;57.13;24.65;;;5.70;99.90;;;;;;5013427;28;20437;-77
2022/01/19 10:09:11;;;;;;;65.10;28.15;;;5.90;99.90;;;;;;4997630;28;20050;-77
2022/01/19 10:16:59;;;;;;;71.53;29.38;;;6.40;99.90;;;;;;4997615;28;20100;-77
2022/01/19 10:17:30;;;;;;;59.72;26.67;;;5.80;99.90;;;;;;4992568;28;20093;-78
2022/01/19 10:19:56;;;;;;;67.03;28.75;;;5.60;99.90;;;;;;5010036;28;20058;-77
2022/01/19 10:22:25;;;;;;;63.70;28.92;;;5.70;99.90;;;;;;5013646;28;20395;-77
2022/01/19 10:24:56;;;;;;;62.17;26.63;;;5.60;99.90;;;;;;5012658;28;20399;-78
2022/01/19 10:27:32;;;;;;;55.33;23.27;;;5.60;99.90;;;;;;5013278;28;20053;-84
2022/01/19 10:30:04;;;;;;;63.47;28.48;;;5.60;99.90;;;;;;5014021;28;20041;-77
2022/01/19 10:32:31;;;;;;;58.50;25.27;;;5.60;99.90;;;;;;5020576;28;20080;-77
2022/01/19 10:34:56;;;;;;;63.47;27.58;;;5.60;99.90;;;;;;5015704;28;20364;-77
2022/01/19 10:37:28;;;;;;;69.63;26.02;;;6.20;99.90;;;;;;5012998;28;20060;-77
2022/01/19 10:39:57;;;;;;;68.43;27.02;;;5.60;99.90;;;;;;5013509;28;20046;-77
2022/01/19 10:42:27;;;;;;;67.32;28.98;;;5.70;99.90;;;;;;4996776;28;20081;-74
2022/01/19 10:44:59;;;;;;;69.50;29.15;;;6.20;99.90;;;;;;5011008;28;20156;-76
2022/01/19 10:47:37;;;;;;;64.88;25.90;;;5.70;99.90;;;;;;4996331;28;20053;-75
2022/01/19 10:50:03;;;;;;;65.45;28.45;;;6.00;99.90;;;;;;5029380;28;20048;-76
2022/01/19 10:52:41;;;;;;;71.13;27.98;;;5.70;99.90;;;;;;5022668;28;20046;-75
2022/01/19 10:55:10;;;;;;;72.10;28.42;;;5.70;99.90;;;;;;5011817;28;20049;-76
2022/01/19 10:57:39;;;;;;;56.70;25.15;;;5.70;99.90;;;;;;4995868;28;20145;-76
2022/01/19 11:00:16;;;;;;;68.88;27.83;;;5.70;99.90;;;;;;5013207;28;20086;-76
2022/01/19 11:02:43;;;;;;;61.75;28.65;;;5.70;99.90;;;;;;5009257;28;20049;-75
2022/01/19 11:05:10;;;;;;;69.35;30.95;;;5.70;99.90;;;;;;4996445;28;20050;-76
2022/01/19 11:07:36;;;;;;;65.32;28.98;;;5.70;99.90;;;;;;4995884;28;20050;-76
2022/01/19 11:10:17;;;;;;;68.50;28.88;;;6.10;99.90;;;;;;5013007;28;20050;-76
2022/01/19 11:12:47;;;;;;;72.70;28.65;;;5.80;99.90;;;;;;5011245;28;20046;-76
2022/01/19 11:15:17;;;;;;;61.85;27.55;;;5.70;99.90;;;;;;5012086;28;20042;-75
2022/01/19 11:17:44;;;;;;;71.43;31.73;;;5.70;99.90;;;;;;5012103;28;20304;-76
2022/01/19 11:20:12;;;;;;;71.15;32.40;;;5.80;99.90;;;;;;5012432;28;20049;-76
2022/01/19 11:23:07;;;;;;;65.38;27.38;;;5.70;99.90;;;;;;5012095;28;20038;-73
2022/01/19 11:25:57;;;;;;;70.85;31.40;;;5.70;99.90;;;;;;5024704;28;20100;-73
2022/01/19 11:28:29;;;;;;;75.28;32.20;;;5.70;99.90;;;;;;5009850;28;20046;-82
2022/01/19 11:30:55;;;;;;;69.38;29.15;;;5.70;99.90;;;;;;5012495;28;20046;-75
2022/01/19 11:33:26;;;;;;;69.60;32.00;;;5.70;99.90;;;;;;5012607;28;20053;-75
2022/01/19 11:36:02;;;;;;;63.83;26.70;;;5.70;99.90;;;;;;5007458;28;20145;-75
2022/01/19 11:38:33;;;;;;;72.95;32.05;;;6.20;99.90;;;;;;5011060;28;20499;-75
2022/01/19 11:41:06;;;;;;;68.70;27.45;;;5.80;99.90;;;;;;4996010;28;20053;-75
2022/01/19 11:43:34;;;;;;;81.50;32.58;;;5.70;99.90;;;;;;5002974;28;20140;-75
2022/01/19 11:46:03;;;;;;;61.00;27.20;;;6.50;99.90;;;;;;4995786;28;20046;-75
2022/01/19 11:48:34;;;;;;;77.38;32.75;;;6.70;99.90;;;;;;4979970;28;20104;-76
2022/01/19 11:51:27;;;;;;;75.38;32.38;;;5.80;99.90;;;;;;4995425;28;20494;-78
2022/01/19 11:54:08;;;;;;;77.35;33.33;;;5.90;99.90;;;;;;4992995;28;20084;-79
2022/01/19 11:56:59;;;;;;;77.30;30.07;;;5.90;99.90;;;;;;5017088;28;20468;-76
2022/01/19 11:59:26;;;;;;;79.93;30.45;;;5.90;99.90;;;;;;4996984;28;20300;-78
2022/01/19 12:01:52;;;;;;;70.47;30.30;;;6.00;99.90;;;;;;5010501;28;20406;-75
2022/01/19 12:04:20;;;;;;;61.83;26.05;;;6.00;99.90;;;;;;4994733;28;20154;-75
2022/01/19 12:06:47;;;;;;;76.22;31.33;;;6.10;99.90;;;;;;5011450;28;20120;-75
2022/01/19 12:09:14;;;;;;;85.30;36.42;;;6.10;99.90;;;;;;4991829;28;20046;-75
2022/01/19 12:11:48;;;;;;;59.05;24.60;;;6.10;99.90;;;;;;5010392;28;20053;-76
2022/01/19 12:14:18;;;;;;;78.05;31.58;;;6.10;99.90;;;;;;5011460;28;20417;-78
2022/01/19 12:16:57;;;;;;;78.63;33.03;;;6.10;99.90;;;;;;4992343;28;20286;-78
2022/01/19 12:19:27;;;;;;;80.88;33.35;;;6.10;99.90;;;;;;5027648;28;20422;-74
2022/01/19 12:22:02;;;;;;;68.22;28.00;;;6.10;99.90;;;;;;5010771;28;20054;-77
2022/01/19 12:24:37;;;;;;;78.78;30.70;;;6.10;99.90;;;;;;4994652;28;20149;-78
2022/01/19 12:27:04;;;;;;;80.50;34.00;;;6.10;99.90;;;;;;5011059;28;20053;-76
2022/01/19 12:29:33;;;;;;;69.72;28.13;;;6.10;99.90;;;;;;4994847;28;20057;-77
2022/01/19 12:32:15;;;;;;;70.60;28.27;;;7.10;99.90;;;;;;4995048;28;20045;-76
2022/01/19 12:34:50;;;;;;;83.38;32.85;;;6.10;99.90;;;;;;5010893;28;20092;-78
2022/01/19 12:37:42;;;;;;;84.82;33.28;;;6.10;99.90;;;;;;5011364;28;20046;-78
2022/01/19 12:40:24;;;;;;;88.97;35.28;;;6.10;99.90;;;;;;5008580;28;20132;-77
2022/01/19 12:43:11;;;;;;;78.80;30.30;;;6.10;99.90;;;;;;4993827;28;20045;-77
2022/01/19 12:45:50;;;;;;;68.80;26.52;;;6.10;99.90;;;;;;5008482;28;20573;-76
2022/01/19 12:48:34;;;;;;;77.15;28.70;;;6.10;99.90;;;;;;4994498;28;20129;-77
2022/01/19 12:51:00;;;;;;;87.90;34.03;;;6.10;99.90;;;;;;5010845;28;20064;-77
2022/01/19 12:53:26;;;;;;;81.70;32.53;;;6.10;99.90;;;;;;5010452;28;20041;-77
2022/01/19 12:56:00;;;;;;;74.38;30.75;;;6.20;99.90;;;;;;4994245;28;20048;-77
2022/01/19 12:58:27;;;;;;;64.18;23.42;;;6.20;99.90;;;;;;5010986;28;20049;-77
2022/01/19 13:00:56;;;;;;;84.53;33.33;;;7.00;99.90;;;;;;5010512;28;20471;-77
2022/01/19 13:03:24;;;;;;;88.38;33.80;;;6.20;99.90;;;;;;5014929;28;20057;-77
2022/01/19 13:05:54;;;;;;;92.72;34.08;;;6.30;99.90;;;;;;5009606;28;20514;-77
2022/01/19 13:08:27;;;;;;;75.05;30.20;;;6.20;99.90;;;;;;4994022;28;20082;-77
2022/01/19 13:10:55;;;;;;;75.90;28.35;;;6.40;99.90;;;;;;5012026;28;20096;-77
2022/01/19 13:15:47;;;;;;;71.07;26.77;;;6.20;99.90;;;;;;5012943;28;20081;-78
2022/01/19 13:18:35;;;;;;;76.07;25.92;;;6.30;99.90;;;;;;5006282;28;20081;-77
2022/01/19 13:21:12;;;;;;;76.90;26.27;;;6.30;99.90;;;;;;4988274;28;20189;-78
2022/01/19 13:23:56;;;;;;;81.90;31.33;;;6.30;99.90;;;;;;5010143;28;20042;-77
2022/01/19 13:26:23;;;;;;;91.30;32.40;;;6.40;99.90;;;;;;5009560;28;20046;-77
2022/01/19 13:28:48;;;;;;;78.32;30.80;;;6.60;99.90;;;;;;5009527;28;20402;-77
2022/01/19 13:31:23;;;;;;;71.03;26.15;;;7.00;99.90;;;;;;5010690;28;20046;-77
2022/01/19 13:34:02;;;;;;;82.13;31.42;;;6.40;99.90;;;;;;5010205;28;20053;-78
2022/01/19 13:36:34;;;;;;;92.95;34.03;;;6.50;99.90;;;;;;5002899;28;20127;-77
2022/01/19 13:39:00;;;;;;;84.28;32.28;;;6.50;99.90;;;;;;5022125;28;20215;-77
2022/01/19 13:41:27;;;;;;;80.80;30.35;;;6.50;99.90;;;;;;5011669;28;20084;-77
2022/01/19 13:43:58;;;;;;;84.97;31.88;;;6.50;99.90;;;;;;5019703;28;20045;-77
2022/01/19 13:46:29;;;;;;;66.82;23.55;;;6.90;99.90;;;;;;5009809;28;20042;-77
2022/01/19 13:49:03;;;;;;;76.00;28.48;;;6.50;99.90;;;;;;4993511;28;20046;-77
2022/01/19 13:51:31;;;;;;;83.75;31.30;;;6.50;99.90;;;;;;5021313;28;20043;-80
2022/01/19 13:54:02;;;;;;;80.25;29.83;;;6.50;99.90;;;;;;5008421;28;20054;-80
2022/01/19 13:56:31;;;;;;;76.57;26.83;;;6.50;99.90;;;;;;5011919;28;20053;-77
2022/01/19 13:59:08;;;;;;;73.07;29.75;;;6.50;99.90;;;;;;5010557;28;20050;-77
2022/01/19 14:01:40;;;;;;;64.82;24.75;;;6.50;99.90;;;;;;4996071;28;20045;-77
2022/01/19 14:04:09;;;;;;;72.68;28.13;;;6.50;99.90;;;;;;5013561;28;20041;-78
2022/01/19 14:06:36;;;;;;;73.85;26.27;;;6.50;99.90;;;;;;5001295;28;20053;-78
2022/01/19 14:09:27;;;;;;;74.88;27.05;;;6.50;99.90;;;;;;5013325;28;20056;-78
2022/01/19 14:11:59;;;;;;;58.03;24.92;;;6.50;99.90;;;;;;5009448;28;20048;-78
2022/01/19 14:14:36;;;;;;;57.88;21.00;;;6.60;99.90;;;;;;5006612;28;20054;-78
2022/01/19 14:17:04;;;;;;;74.35;26.25;;;6.60;99.90;;;;;;5010845;28;20137;-79